Flight Track Log - Related Links

Times and Time Zones

All times are in EDT time to prevent confusion due to time zone crossing. See the EGF3308 flight status page for this flight to view local times or setup timezone preferences in your user account.

Time Position Orientation Groundspeed Altitude Reporting Facility
EDT Latitude Longitude Course Direction KTS MPH feet Rate Location/Type
Wed 10:38:24 PM 32.8833 -97.0333 357° North 194 223 1,300  Level Dallas / Fort Worth TRACON
Wed 10:39:06 PM 32.8500 -97.0167 157° South 202 232 2,500 1,944 Climbing Dallas / Fort Worth TRACON
Wed 10:40:00 PM 32.8001 -96.8100 10° North  Level FlightAware Approximate
Wed 10:40:12 PM 32.8000 -96.9667 140° Southeast 228 262 4,800  Level Dallas / Fort Worth TRACON
Wed 10:41:00 PM 32.9049 -96.8000 North  Level FlightAware Approximate
Wed 10:41:12 PM 32.8500 -96.9333 29° Northeast 257 296 6,600  Level Dallas / Fort Worth TRACON
Wed 10:42:00 PM 33.0104 -96.8000 North  Level FlightAware Approximate
Wed 10:42:12 PM 32.9167 -96.9167 12° North 266 306 8,800  Level Dallas / Fort Worth TRACON
Wed 10:43:00 PM 33.1158 -96.8031 357° North  Level FlightAware Approximate
Wed 10:44:06 PM 33.0681 -96.8903 North 312 359 11,700  Level Fort Worth Center
Wed 10:45:06 PM 33.1558 -96.8750 North 313 360 12,800 1,200 Climbing Fort Worth Center
Wed 10:46:06 PM 33.2433 -96.8619 North 328 377 14,100 1,450 Climbing Fort Worth Center
Wed 10:47:06 PM 33.3478 -96.8439 North 341 392 15,700 1,450 Climbing Fort Worth Center
Wed 10:48:06 PM 33.4331 -96.8286 North 348 400 17,000 1,600 Climbing Fort Worth Center
Wed 10:49:06 PM 33.5417 -96.8103 North 353 406 18,900 1,750 Climbing Fort Worth Center
Wed 10:50:06 PM 33.6314 -96.7847 13° North 348 400 20,500 1,400 Climbing Fort Worth Center
Wed 10:51:06 PM 33.7164 -96.7117 36° Northeast 352 405 21,700 1,250 Climbing Fort Worth Center
Wed 10:52:06 PM 33.7994 -96.6336 38° Northeast 374 430 23,000 1,300 Climbing Fort Worth Center
Wed 10:53:06 PM 33.8803 -96.5628 36° Northeast 370 426 24,300 1,250 Climbing Fort Worth Center
Wed 10:54:06 PM 33.9656 -96.4869 36° Northeast 370 426 25,500 1,250 Climbing Fort Worth Center
Wed 10:55:06 PM 34.0483 -96.4108 37° Northeast 364 419 26,800 1,250 Climbing Fort Worth Center
Wed 10:56:06 PM 34.1311 -96.3344 37° Northeast 364 419 28,000 1,200 Climbing Fort Worth Center
Wed 10:57:06 PM 34.2139 -96.2581 37° Northeast 364 419 29,200 1,200 Climbing Fort Worth Center
Wed 10:58:06 PM 34.2967 -96.1842 36° Northeast 364 419 30,400 900 Climbing Fort Worth Center
Wed 10:59:06 PM 34.3814 -96.1075 37° Northeast 364 419 31,000 300 Climbing Fort Worth Center
Wed 11:00:06 PM 34.4725 -96.0256 37° Northeast 378 435 31,000  Level Fort Worth Center
Wed 11:01:06 PM 34.5675 -95.9383 37° Northeast 405 466 31,000  Level Fort Worth Center
Wed 11:02:06 PM 34.6622 -95.8508 37° Northeast 418 481 31,000  Level Fort Worth Center
Wed 11:03:06 PM 34.7592 -95.7656 36° Northeast 430 495 31,000  Level Fort Worth Center
Wed 11:04:06 PM 34.8539 -95.6753 38° Northeast 430 495 31,000  Level Fort Worth Center
Wed 11:05:06 PM 34.9550 -95.5922 34° Northeast 430 495 31,000  Level Fort Worth Center
Wed 11:06:06 PM 35.0497 -95.5014 38° Northeast 435 501 31,000  Level Fort Worth Center
Wed 11:07:06 PM 35.1442 -95.4128 37° Northeast 430 495 31,000 -356 Level Fort Worth Center
Wed 11:08:21 PM 35.2553 -95.3128 36° Northeast 450 518 30,200 -1,022 Descending Memphis Center
Wed 11:09:21 PM 35.3506 -95.2242 37° Northeast 444 511 28,700 -1,500 Descending Memphis Center
Wed 11:10:21 PM 35.4481 -95.1306 38° Northeast 444 511 27,200 -1,300 Descending Memphis Center
Wed 11:11:21 PM 35.5453 -95.0392 37° Northeast 439 505 26,100 -1,050 Descending Memphis Center
Wed 11:12:21 PM 35.6425 -94.9450 38° Northeast 439 505 25,100 -1,000 Descending Memphis Center
Wed 11:13:21 PM 35.7397 -94.8533 37° Northeast 439 505 24,100 -1,000 Descending Memphis Center
Wed 11:14:21 PM 35.8369 -94.7611 38° Northeast 439 505 23,100 -1,000 Descending Memphis Center
Wed 11:15:21 PM 35.9297 -94.6739 37° Northeast 434 499 22,100 -1,000 Descending Memphis Center
Wed 11:16:21 PM 36.0203 -94.5864 38° Northeast 423 487 21,100 -1,000 Descending Memphis Center
Wed 11:17:21 PM 36.1086 -94.5008 38° Northeast 412 474 20,100 -1,000 Descending Memphis Center
Wed 11:18:21 PM 36.1969 -94.4153 38° Northeast 407 468 19,100 -1,000 Descending Memphis Center
Wed 11:20:03 PM 36.3544 -94.2633 38° Northeast 395 455 17,400 -988 Descending Kansas City Center
Wed 11:21:05 PM 36.4392 -94.1817 38° Northeast 388 447 16,400 -689 Descending Kansas City Center
Wed 11:22:05 PM 36.5200 -94.1014 39° Northeast 379 436 16,000 -198 Descending Kansas City Center
Wed 11:23:06 PM 36.6031 -94.0217 38° Northeast 376 433 16,000  Level Kansas City Center
Wed 11:24:07 PM 36.6861 -93.9408 38° Northeast 378 435 16,000 -443 Level Kansas City Center
Wed 11:25:08 PM 36.7700 -93.8589 38° Northeast 381 438 15,100 -1,512 Descending Kansas City Center
Wed 11:26:10 PM 36.8517 -93.7819 37° Northeast 374 430 12,900 -1,951 Descending Kansas City Center
Wed 11:27:11 PM 36.9353 -93.7414 21° North 352 405 11,100 -1,574 Descending Kansas City Center
Wed 11:28:12 PM 37.0297 -93.6933 22° Northeast 313 360 9,700 -1,475 Descending Kansas City Center
Wed 11:29:13 PM 37.1011 -93.6578 22° Northeast 285 328 8,100 -1,672 Descending Kansas City Center
Wed 11:30:14 PM 37.1703 -93.6236 21° North 272 313 6,300 -1,574 Descending Kansas City Center
Wed 11:31:15 PM 37.2369 -93.5914 21° North 260 299 4,900 -1,377 Descending Kansas City Center

Login

Don't have an account? Register now (free) for customized features, flight alerts, and more!